sensor_id;sensor_type;location;lat;lon;timestamp;temperature;humidity
16879;DHT22;8556;52.218;9.884;2022-12-11T00:01:48;0.00;99.90
16879;DHT22;8556;52.218;9.884;2022-12-11T00:04:15;-0.10;99.90
16879;DHT22;8556;52.218;9.884;2022-12-11T00:06:41;0.00;99.90
16879;DHT22;8556;52.218;9.884;2022-12-11T00:09:09;0.10;99.90
16879;DHT22;8556;52.218;9.884;2022-12-11T00:11:37;0.10;99.90
16879;DHT22;8556;52.218;9.884;2022-12-11T00:14:04;0.00;99.90
16879;DHT22;8556;52.218;9.884;2022-12-11T00:16:31;-0.10;99.90
16879;DHT22;8556;52.218;9.884;2022-12-11T00:18:58;-0.10;99.90
16879;DHT22;8556;52.218;9.884;2022-12-11T00:21:24;0.00;99.90
16879;DHT22;8556;52.218;9.884;2022-12-11T00:23:51;0.00;99.90
16879;DHT22;8556;52.218;9.884;2022-12-11T00:26:18;0.00;99.90
16879;DHT22;8556;52.218;9.884;2022-12-11T00:28:46;-0.10;99.90
16879;DHT22;8556;52.218;9.884;2022-12-11T00:31:15;-0.10;99.90
16879;DHT22;8556;52.218;9.884;2022-12-11T00:33:43;-0.10;99.90
16879;DHT22;8556;52.218;9.884;2022-12-11T00:36:11;-0.10;99.90
16879;DHT22;8556;52.218;9.884;2022-12-11T00:38:39;0.00;99.90
16879;DHT22;8556;52.218;9.884;2022-12-11T00:41:06;0.00;99.90
16879;DHT22;8556;52.218;9.884;2022-12-11T00:43:32;0.10;99.90
16879;DHT22;8556;52.218;9.884;2022-12-11T00:46:00;0.10;99.90
16879;DHT22;8556;52.218;9.884;2022-12-11T00:48:27;0.10;99.90
16879;DHT22;8556;52.218;9.884;2022-12-11T00:50:54;0.10;99.90
16879;DHT22;8556;52.218;9.884;2022-12-11T00:53:21;0.10;99.90
16879;DHT22;8556;52.218;9.884;2022-12-11T00:55:48;0.10;99.90
16879;DHT22;8556;52.218;9.884;2022-12-11T00:58:15;0.10;99.90
16879;DHT22;8556;52.218;9.884;2022-12-11T01:00:42;0.10;99.90
16879;DHT22;8556;52.218;9.884;2022-12-11T01:03:13;0.10;99.90
16879;DHT22;8556;52.218;9.884;2022-12-11T01:05:40;0.10;99.90
16879;DHT22;8556;52.218;9.884;2022-12-11T01:08:07;0.10;99.90
16879;DHT22;8556;52.218;9.884;2022-12-11T01:10:34;0.20;99.90
16879;DHT22;8556;52.218;9.884;2022-12-11T01:13:02;0.20;99.90
16879;DHT22;8556;52.218;9.884;2022-12-11T01:15:31;0.20;99.90
16879;DHT22;8556;52.218;9.884;2022-12-11T01:17:58;0.10;99.90
16879;DHT22;8556;52.218;9.884;2022-12-11T01:20:27;0.10;99.90
16879;DHT22;8556;52.218;9.884;2022-12-11T01:22:55;0.20;99.90
16879;DHT22;8556;52.218;9.884;2022-12-11T01:25:22;0.10;99.90
16879;DHT22;8556;52.218;9.884;2022-12-11T01:27:50;0.10;99.90
16879;DHT22;8556;52.218;9.884;2022-12-11T01:30:18;0.00;99.90
16879;DHT22;8556;52.218;9.884;2022-12-11T01:32:45;0.00;99.90
16879;DHT22;8556;52.218;9.884;2022-12-11T01:35:12;0.00;99.90
16879;DHT22;8556;52.218;9.884;2022-12-11T01:37:41;0.00;99.90
16879;DHT22;8556;52.218;9.884;2022-12-11T01:40:08;0.00;99.90
16879;DHT22;8556;52.218;9.884;2022-12-11T01:42:37;0.00;99.90
16879;DHT22;8556;52.218;9.884;2022-12-11T01:45:25;0.00;99.90
16879;DHT22;8556;52.218;9.884;2022-12-11T01:47:55;0.00;99.90
16879;DHT22;8556;52.218;9.884;2022-12-11T01:50:23;0.10;99.90
16879;DHT22;8556;52.218;9.884;2022-12-11T01:52:52;0.10;99.90
16879;DHT22;8556;52.218;9.884;2022-12-11T01:55:19;0.00;99.90
16879;DHT22;8556;52.218;9.884;2022-12-11T01:57:48;0.00;99.90
16879;DHT22;8556;52.218;9.884;2022-12-11T02:00:16;0.00;99.90
16879;DHT22;8556;52.218;9.884;2022-12-11T02:02:43;0.00;99.90
16879;DHT22;8556;52.218;9.884;2022-12-11T02:05:10;0.00;99.90
16879;DHT22;8556;52.218;9.884;2022-12-11T02:07:40;0.00;99.90
16879;DHT22;8556;52.218;9.884;2022-12-11T02:10:10;0.00;99.90
16879;DHT22;8556;52.218;9.884;2022-12-11T02:12:42;-0.10;99.90
16879;DHT22;8556;52.218;9.884;2022-12-11T02:15:22;0.00;99.90
16879;DHT22;8556;52.218;9.884;2022-12-11T02:17:53;0.00;99.90
16879;DHT22;8556;52.218;9.884;2022-12-11T02:20:27;0.00;99.90
16879;DHT22;8556;52.218;9.884;2022-12-11T02:23:24;0.00;99.90
16879;DHT22;8556;52.218;9.884;2022-12-11T02:26:11;0.00;99.90
16879;DHT22;8556;52.218;9.884;2022-12-11T02:28:48;0.00;99.90
16879;DHT22;8556;52.218;9.884;2022-12-11T02:31:22;0.00;99.90
16879;DHT22;8556;52.218;9.884;2022-12-11T02:33:52;0.00;99.90
16879;DHT22;8556;52.218;9.884;2022-12-11T02:36:23;-0.10;99.90
16879;DHT22;8556;52.218;9.884;2022-12-11T02:38:52;-0.10;99.90
16879;DHT22;8556;52.218;9.884;2022-12-11T02:41:20;-0.10;99.90
16879;DHT22;8556;52.218;9.884;2022-12-11T02:43:50;0.00;99.90
16879;DHT22;8556;52.218;9.884;2022-12-11T02:46:18;-0.10;99.90
16879;DHT22;8556;52.218;9.884;2022-12-11T02:48:47;0.00;99.90
16879;DHT22;8556;52.218;9.884;2022-12-11T02:51:17;0.00;99.90
16879;DHT22;8556;52.218;9.884;2022-12-11T02:53:47;0.00;99.90
16879;DHT22;8556;52.218;9.884;2022-12-11T02:56:19;0.00;99.90
16879;DHT22;8556;52.218;9.884;2022-12-11T02:58:53;0.00;99.90
16879;DHT22;8556;52.218;9.884;2022-12-11T03:01:21;0.00;99.90
16879;DHT22;8556;52.218;9.884;2022-12-11T03:03:48;-0.10;99.90
16879;DHT22;8556;52.218;9.884;2022-12-11T03:06:18;-0.10;99.90
16879;DHT22;8556;52.218;9.884;2022-12-11T03:08:45;-0.10;99.90
16879;DHT22;8556;52.218;9.884;2022-12-11T03:11:12;-0.10;99.90
16879;DHT22;8556;52.218;9.884;2022-12-11T03:13:40;-0.10;99.90
16879;DHT22;8556;52.218;9.884;2022-12-11T03:16:12;-0.10;99.90
16879;DHT22;8556;52.218;9.884;2022-12-11T03:18:48;-0.20;99.90
16879;DHT22;8556;52.218;9.884;2022-12-11T03:21:23;-0.20;99.90
16879;DHT22;8556;52.218;9.884;2022-12-11T03:23:56;-0.20;99.90
16879;DHT22;8556;52.218;9.884;2022-12-11T03:26:24;-0.20;99.90
16879;DHT22;8556;52.218;9.884;2022-12-11T03:28:56;-0.20;99.90
16879;DHT22;8556;52.218;9.884;2022-12-11T03:31:29;-0.30;99.90
16879;DHT22;8556;52.218;9.884;2022-12-11T03:34:00;-0.20;99.90
16879;DHT22;8556;52.218;9.884;2022-12-11T03:36:31;-0.30;99.90
16879;DHT22;8556;52.218;9.884;2022-12-11T03:39:00;-0.30;99.90
16879;DHT22;8556;52.218;9.884;2022-12-11T03:41:30;-0.30;99.90
16879;DHT22;8556;52.218;9.884;2022-12-11T03:43:59;-0.30;99.90
16879;DHT22;8556;52.218;9.884;2022-12-11T03:46:30;-0.20;99.90
16879;DHT22;8556;52.218;9.884;2022-12-11T03:49:00;-0.30;99.90
16879;DHT22;8556;52.218;9.884;2022-12-11T03:51:28;-0.30;99.90
16879;DHT22;8556;52.218;9.884;2022-12-11T03:53:57;-0.30;99.90
16879;DHT22;8556;52.218;9.884;2022-12-11T03:56:26;-0.30;99.90
16879;DHT22;8556;52.218;9.884;2022-12-11T03:58:54;-0.30;99.90
16879;DHT22;8556;52.218;9.884;2022-12-11T04:01:21;-0.30;99.90
16879;DHT22;8556;52.218;9.884;2022-12-11T04:03:49;-0.30;99.90
16879;DHT22;8556;52.218;9.884;2022-12-11T04:06:15;-0.30;99.90
16879;DHT22;8556;52.218;9.884;2022-12-11T04:08:42;-0.30;99.90
16879;DHT22;8556;52.218;9.884;2022-12-11T04:11:09;-0.30;99.90
16879;DHT22;8556;52.218;9.884;2022-12-11T04:13:54;-0.30;99.90
16879;DHT22;8556;52.218;9.884;2022-12-11T04:16:34;-0.40;99.90
16879;DHT22;8556;52.218;9.884;2022-12-11T04:19:02;-0.30;99.90
16879;DHT22;8556;52.218;9.884;2022-12-11T04:21:47;-0.40;99.90
16879;DHT22;8556;52.218;9.884;2022-12-11T04:24:31;-0.30;99.90
16879;DHT22;8556;52.218;9.884;2022-12-11T04:26:58;-0.30;99.90
16879;DHT22;8556;52.218;9.884;2022-12-11T04:29:25;-0.30;99.90
16879;DHT22;8556;52.218;9.884;2022-12-11T04:31:52;-0.40;99.90
16879;DHT22;8556;52.218;9.884;2022-12-11T04:34:20;-0.30;99.90
16879;DHT22;8556;52.218;9.884;2022-12-11T04:36:47;-0.30;99.90
16879;DHT22;8556;52.218;9.884;2022-12-11T04:39:14;-0.30;99.90
16879;DHT22;8556;52.218;9.884;2022-12-11T04:41:41;-0.30;99.90
16879;DHT22;8556;52.218;9.884;2022-12-11T04:44:08;-0.30;99.90
16879;DHT22;8556;52.218;9.884;2022-12-11T04:46:35;-0.30;99.90
16879;DHT22;8556;52.218;9.884;2022-12-11T04:49:02;-0.30;99.90
16879;DHT22;8556;52.218;9.884;2022-12-11T04:51:30;-0.30;99.90
16879;DHT22;8556;52.218;9.884;2022-12-11T04:53:57;-0.30;99.90
16879;DHT22;8556;52.218;9.884;2022-12-11T04:56:24;-0.30;99.90
16879;DHT22;8556;52.218;9.884;2022-12-11T04:58:51;-0.40;99.90
16879;DHT22;8556;52.218;9.884;2022-12-11T05:01:20;-0.40;99.90
16879;DHT22;8556;52.218;9.884;2022-12-11T05:03:47;-0.30;99.90
16879;DHT22;8556;52.218;9.884;2022-12-11T05:06:13;-0.30;99.90
16879;DHT22;8556;52.218;9.884;2022-12-11T05:08:42;-0.40;99.90
16879;DHT22;8556;52.218;9.884;2022-12-11T05:11:14;-0.40;99.90
16879;DHT22;8556;52.218;9.884;2022-12-11T05:13:41;-0.40;99.90
16879;DHT22;8556;52.218;9.884;2022-12-11T05:16:10;-0.30;99.90
16879;DHT22;8556;52.218;9.884;2022-12-11T05:18:37;-0.40;99.90
16879;DHT22;8556;52.218;9.884;2022-12-11T05:21:06;-0.40;99.90
16879;DHT22;8556;52.218;9.884;2022-12-11T05:23:34;-0.40;99.90
16879;DHT22;8556;52.218;9.884;2022-12-11T05:26:04;-0.40;99.90
16879;DHT22;8556;52.218;9.884;2022-12-11T05:28:33;-0.30;99.90
16879;DHT22;8556;52.218;9.884;2022-12-11T05:31:02;-0.30;99.90
16879;DHT22;8556;52.218;9.884;2022-12-11T05:33:30;-0.40;99.90
16879;DHT22;8556;52.218;9.884;2022-12-11T05:35:57;-0.30;99.90
16879;DHT22;8556;52.218;9.884;2022-12-11T05:38:24;-0.40;99.90
16879;DHT22;8556;52.218;9.884;2022-12-11T05:40:58;-0.40;99.90
16879;DHT22;8556;52.218;9.884;2022-12-11T05:43:27;-0.40;99.90
16879;DHT22;8556;52.218;9.884;2022-12-11T05:45:55;-0.40;99.90
16879;DHT22;8556;52.218;9.884;2022-12-11T05:48:22;-0.40;99.90
16879;DHT22;8556;52.218;9.884;2022-12-11T05:50:56;-0.50;99.90
16879;DHT22;8556;52.218;9.884;2022-12-11T05:53:23;-0.50;99.90
16879;DHT22;8556;52.218;9.884;2022-12-11T05:55:50;-0.50;99.90
16879;DHT22;8556;52.218;9.884;2022-12-11T05:58:17;-0.50;99.90
16879;DHT22;8556;52.218;9.884;2022-12-11T06:00:46;-0.60;99.90
16879;DHT22;8556;52.218;9.884;2022-12-11T06:03:13;-0.60;99.90
16879;DHT22;8556;52.218;9.884;2022-12-11T06:05:40;-0.50;99.90
16879;DHT22;8556;52.218;9.884;2022-12-11T06:08:07;-0.60;99.90
16879;DHT22;8556;52.218;9.884;2022-12-11T06:10:34;-0.60;99.90
16879;DHT22;8556;52.218;9.884;2022-12-11T06:13:01;-0.60;99.90
16879;DHT22;8556;52.218;9.884;2022-12-11T06:15:28;-0.60;99.90
16879;DHT22;8556;52.218;9.884;2022-12-11T06:17:56;-0.50;99.90
16879;DHT22;8556;52.218;9.884;2022-12-11T06:20:23;-0.50;99.90
16879;DHT22;8556;52.218;9.884;2022-12-11T06:22:50;-0.50;99.90
16879;DHT22;8556;52.218;9.884;2022-12-11T06:25:17;-0.50;99.90
16879;DHT22;8556;52.218;9.884;2022-12-11T06:27:43;-0.60;99.90
16879;DHT22;8556;52.218;9.884;2022-12-11T06:30:11;-0.50;99.90
16879;DHT22;8556;52.218;9.884;2022-12-11T06:32:38;-0.50;99.90
16879;DHT22;8556;52.218;9.884;2022-12-11T06:35:07;-0.60;99.90
16879;DHT22;8556;52.218;9.884;2022-12-11T06:37:34;-0.60;99.90
16879;DHT22;8556;52.218;9.884;2022-12-11T06:40:02;-0.50;99.90
16879;DHT22;8556;52.218;9.884;2022-12-11T06:42:30;-0.50;99.90
16879;DHT22;8556;52.218;9.884;2022-12-11T06:44:57;-0.60;99.90
16879;DHT22;8556;52.218;9.884;2022-12-11T06:47:24;-0.60;99.90
16879;DHT22;8556;52.218;9.884;2022-12-11T06:49:51;-0.40;99.90
16879;DHT22;8556;52.218;9.884;2022-12-11T06:52:20;-0.40;99.90
16879;DHT22;8556;52.218;9.884;2022-12-11T06:54:48;-0.40;99.90
16879;DHT22;8556;52.218;9.884;2022-12-11T06:57:15;-0.40;99.90
16879;DHT22;8556;52.218;9.884;2022-12-11T06:59:42;-0.40;99.90
16879;DHT22;8556;52.218;9.884;2022-12-11T07:02:10;-0.40;99.90
16879;DHT22;8556;52.218;9.884;2022-12-11T07:04:37;-0.40;99.90
16879;DHT22;8556;52.218;9.884;2022-12-11T07:07:04;-0.40;99.90
16879;DHT22;8556;52.218;9.884;2022-12-11T07:09:33;-0.40;99.90
16879;DHT22;8556;52.218;9.884;2022-12-11T07:12:00;-0.50;99.90
16879;DHT22;8556;52.218;9.884;2022-12-11T07:14:28;-0.40;99.90
16879;DHT22;8556;52.218;9.884;2022-12-11T07:16:55;-0.50;99.90
16879;DHT22;8556;52.218;9.884;2022-12-11T07:19:22;-0.50;99.90
16879;DHT22;8556;52.218;9.884;2022-12-11T07:21:49;-0.60;99.90
16879;DHT22;8556;52.218;9.884;2022-12-11T07:24:16;-0.50;99.90
16879;DHT22;8556;52.218;9.884;2022-12-11T07:26:44;-0.60;99.90
16879;DHT22;8556;52.218;9.884;2022-12-11T07:29:11;-0.60;99.90
16879;DHT22;8556;52.218;9.884;2022-12-11T07:31:38;-0.60;99.90
16879;DHT22;8556;52.218;9.884;2022-12-11T07:34:06;-0.60;99.90
16879;DHT22;8556;52.218;9.884;2022-12-11T07:36:33;-0.60;99.90
16879;DHT22;8556;52.218;9.884;2022-12-11T07:39:00;-0.50;99.90
16879;DHT22;8556;52.218;9.884;2022-12-11T07:41:27;-0.60;99.90
16879;DHT22;8556;52.218;9.884;2022-12-11T07:43:58;-0.60;99.90
16879;DHT22;8556;52.218;9.884;2022-12-11T07:46:28;-0.60;99.90
16879;DHT22;8556;52.218;9.884;2022-12-11T07:48:55;-0.50;99.90
16879;DHT22;8556;52.218;9.884;2022-12-11T07:51:23;-0.60;99.90
16879;DHT22;8556;52.218;9.884;2022-12-11T07:53:53;-0.60;99.90
16879;DHT22;8556;52.218;9.884;2022-12-11T07:56:20;-0.50;99.90
16879;DHT22;8556;52.218;9.884;2022-12-11T07:58:48;-0.50;99.90
16879;DHT22;8556;52.218;9.884;2022-12-11T08:01:18;-0.60;99.90
16879;DHT22;8556;52.218;9.884;2022-12-11T08:03:45;-0.60;99.90
16879;DHT22;8556;52.218;9.884;2022-12-11T08:06:12;-0.60;99.90
16879;DHT22;8556;52.218;9.884;2022-12-11T08:08:39;-0.60;99.90
16879;DHT22;8556;52.218;9.884;2022-12-11T08:11:08;-0.60;99.90
16879;DHT22;8556;52.218;9.884;2022-12-11T08:13:35;-0.60;99.90
16879;DHT22;8556;52.218;9.884;2022-12-11T08:16:03;-0.60;99.90
16879;DHT22;8556;52.218;9.884;2022-12-11T08:18:31;-0.60;99.90
16879;DHT22;8556;52.218;9.884;2022-12-11T08:21:03;-0.60;99.90
16879;DHT22;8556;52.218;9.884;2022-12-11T08:23:29;-0.60;99.90
16879;DHT22;8556;52.218;9.884;2022-12-11T08:25:56;-0.70;99.90
16879;DHT22;8556;52.218;9.884;2022-12-11T08:28:23;-0.60;99.90
16879;DHT22;8556;52.218;9.884;2022-12-11T08:30:50;-0.60;99.90
16879;DHT22;8556;52.218;9.884;2022-12-11T08:33:17;-0.60;99.90
16879;DHT22;8556;52.218;9.884;2022-12-11T08:35:45;-0.60;99.90
16879;DHT22;8556;52.218;9.884;2022-12-11T08:38:12;-0.60;99.90
16879;DHT22;8556;52.218;9.884;2022-12-11T08:40:40;-0.60;99.90
16879;DHT22;8556;52.218;9.884;2022-12-11T08:43:07;-0.60;99.90
16879;DHT22;8556;52.218;9.884;2022-12-11T08:45:34;-0.60;99.90
16879;DHT22;8556;52.218;9.884;2022-12-11T08:48:01;-0.50;99.90
16879;DHT22;8556;52.218;9.884;2022-12-11T08:50:27;-0.60;99.90
16879;DHT22;8556;52.218;9.884;2022-12-11T08:52:56;-0.60;99.90
16879;DHT22;8556;52.218;9.884;2022-12-11T08:55:23;-0.60;99.90
16879;DHT22;8556;52.218;9.884;2022-12-11T08:57:50;-0.60;99.90
16879;DHT22;8556;52.218;9.884;2022-12-11T09:00:17;-0.50;99.90
16879;DHT22;8556;52.218;9.884;2022-12-11T09:02:44;-0.60;99.90
16879;DHT22;8556;52.218;9.884;2022-12-11T09:05:10;-0.60;99.90
16879;DHT22;8556;52.218;9.884;2022-12-11T09:07:37;-0.60;99.90
16879;DHT22;8556;52.218;9.884;2022-12-11T09:10:06;-0.70;99.90
16879;DHT22;8556;52.218;9.884;2022-12-11T09:12:35;-0.60;99.90
16879;DHT22;8556;52.218;9.884;2022-12-11T09:15:02;-0.60;99.90
16879;DHT22;8556;52.218;9.884;2022-12-11T09:17:29;-0.50;99.90
16879;DHT22;8556;52.218;9.884;2022-12-11T09:19:56;-0.60;99.90
16879;DHT22;8556;52.218;9.884;2022-12-11T09:22:23;-0.60;99.90
16879;DHT22;8556;52.218;9.884;2022-12-11T09:24:49;-0.60;99.90
16879;DHT22;8556;52.218;9.884;2022-12-11T09:27:18;-0.50;99.90
16879;DHT22;8556;52.218;9.884;2022-12-11T09:29:45;-0.60;99.90
16879;DHT22;8556;52.218;9.884;2022-12-11T09:32:12;-0.50;99.90
16879;DHT22;8556;52.218;9.884;2022-12-11T09:34:39;-0.60;99.90
16879;DHT22;8556;52.218;9.884;2022-12-11T09:37:06;-0.60;99.90
16879;DHT22;8556;52.218;9.884;2022-12-11T09:39:32;-0.60;99.90
16879;DHT22;8556;52.218;9.884;2022-12-11T09:42:03;-0.60;99.90
16879;DHT22;8556;52.218;9.884;2022-12-11T09:44:37;-0.50;99.90
16879;DHT22;8556;52.218;9.884;2022-12-11T09:47:16;-0.50;99.90
16879;DHT22;8556;52.218;9.884;2022-12-11T09:49:46;-0.50;99.90
16879;DHT22;8556;52.218;9.884;2022-12-11T09:52:19;-0.60;99.90
16879;DHT22;8556;52.218;9.884;2022-12-11T09:54:52;-0.50;99.90
16879;DHT22;8556;52.218;9.884;2022-12-11T09:57:30;-0.40;99.90
16879;DHT22;8556;52.218;9.884;2022-12-11T10:00:14;-0.50;99.90
16879;DHT22;8556;52.218;9.884;2022-12-11T10:03:05;-0.40;99.90
16879;DHT22;8556;52.218;9.884;2022-12-11T10:05:40;-0.30;99.90
16879;DHT22;8556;52.218;9.884;2022-12-11T10:08:17;-0.40;99.90
16879;DHT22;8556;52.218;9.884;2022-12-11T10:10:51;-0.40;99.90
16879;DHT22;8556;52.218;9.884;2022-12-11T10:13:26;-0.40;99.90
16879;DHT22;8556;52.218;9.884;2022-12-11T10:15:59;-0.30;99.90
16879;DHT22;8556;52.218;9.884;2022-12-11T10:18:30;-0.40;99.90
16879;DHT22;8556;52.218;9.884;2022-12-11T10:21:00;-0.40;99.90
16879;DHT22;8556;52.218;9.884;2022-12-11T10:23:31;-0.30;99.90
16879;DHT22;8556;52.218;9.884;2022-12-11T10:26:05;-0.30;99.90
16879;DHT22;8556;52.218;9.884;2022-12-11T10:28:32;-0.20;99.90
16879;DHT22;8556;52.218;9.884;2022-12-11T10:31:08;-0.20;99.90
16879;DHT22;8556;52.218;9.884;2022-12-11T10:33:40;-0.30;99.90
16879;DHT22;8556;52.218;9.884;2022-12-11T10:36:09;-0.40;99.90
16879;DHT22;8556;52.218;9.884;2022-12-11T10:38:43;-0.20;99.90
16879;DHT22;8556;52.218;9.884;2022-12-11T10:41:11;-0.20;99.90
16879;DHT22;8556;52.218;9.884;2022-12-11T10:43:40;-0.20;99.90
16879;DHT22;8556;52.218;9.884;2022-12-11T10:46:15;-0.20;99.90
16879;DHT22;8556;52.218;9.884;2022-12-11T10:48:46;-0.10;99.90
16879;DHT22;8556;52.218;9.884;2022-12-11T10:51:13;0.00;99.90
16879;DHT22;8556;52.218;9.884;2022-12-11T10:53:41;0.00;99.90
16879;DHT22;8556;52.218;9.884;2022-12-11T10:56:10;0.00;99.90
16879;DHT22;8556;52.218;9.884;2022-12-11T10:58:46;0.00;99.90
16879;DHT22;8556;52.218;9.884;2022-12-11T11:01:19;-0.10;99.90
16879;DHT22;8556;52.218;9.884;2022-12-11T11:03:56;-0.10;99.90
16879;DHT22;8556;52.218;9.884;2022-12-11T11:06:24;0.20;99.90
16879;DHT22;8556;52.218;9.884;2022-12-11T11:08:53;0.20;99.90
16879;DHT22;8556;52.218;9.884;2022-12-11T11:11:26;0.40;99.90
16879;DHT22;8556;52.218;9.884;2022-12-11T11:14:04;0.30;99.90
16879;DHT22;8556;52.218;9.884;2022-12-11T11:16:36;0.30;99.90
16879;DHT22;8556;52.218;9.884;2022-12-11T11:19:03;0.20;99.90
16879;DHT22;8556;52.218;9.884;2022-12-11T11:21:32;0.30;99.90
16879;DHT22;8556;52.218;9.884;2022-12-11T11:23:59;0.20;99.90
16879;DHT22;8556;52.218;9.884;2022-12-11T11:26:30;0.30;99.90
16879;DHT22;8556;52.218;9.884;2022-12-11T11:28:57;0.30;99.90
16879;DHT22;8556;52.218;9.884;2022-12-11T11:31:31;0.40;99.90
16879;DHT22;8556;52.218;9.884;2022-12-11T11:34:01;0.40;99.90
16879;DHT22;8556;52.218;9.884;2022-12-11T11:36:31;0.30;99.90
16879;DHT22;8556;52.218;9.884;2022-12-11T11:39:09;0.30;99.90
16879;DHT22;8556;52.218;9.884;2022-12-11T11:41:43;0.10;99.90
16879;DHT22;8556;52.218;9.884;2022-12-11T11:44:15;0.10;99.90
16879;DHT22;8556;52.218;9.884;2022-12-11T11:46:47;0.10;99.90
16879;DHT22;8556;52.218;9.884;2022-12-11T11:49:20;0.20;99.90
16879;DHT22;8556;52.218;9.884;2022-12-11T11:51:53;0.40;99.90
16879;DHT22;8556;52.218;9.884;2022-12-11T11:54:29;0.40;99.90
16879;DHT22;8556;52.218;9.884;2022-12-11T11:56:58;0.60;99.90
16879;DHT22;8556;52.218;9.884;2022-12-11T11:59:30;1.00;99.90
16879;DHT22;8556;52.218;9.884;2022-12-11T12:01:57;1.40;99.90
16879;DHT22;8556;52.218;9.884;2022-12-11T12:04:30;1.60;99.90
16879;DHT22;8556;52.218;9.884;2022-12-11T12:07:10;1.70;99.90
16879;DHT22;8556;52.218;9.884;2022-12-11T12:09:45;1.80;99.90
16879;DHT22;8556;52.218;9.884;2022-12-11T12:12:18;1.30;99.90
16879;DHT22;8556;52.218;9.884;2022-12-11T12:14:57;1.10;99.90
16879;DHT22;8556;52.218;9.884;2022-12-11T12:17:31;1.00;99.90
16879;DHT22;8556;52.218;9.884;2022-12-11T12:20:12;0.90;99.90
16879;DHT22;8556;52.218;9.884;2022-12-11T12:22:52;1.10;99.90
16879;DHT22;8556;52.218;9.884;2022-12-11T12:25:26;1.30;99.90
16879;DHT22;8556;52.218;9.884;2022-12-11T12:27:59;1.30;99.90
16879;DHT22;8556;52.218;9.884;2022-12-11T12:30:34;1.30;99.90
16879;DHT22;8556;52.218;9.884;2022-12-11T12:33:16;1.20;99.90
16879;DHT22;8556;52.218;9.884;2022-12-11T12:35:54;0.70;99.90
16879;DHT22;8556;52.218;9.884;2022-12-11T12:38:32;0.80;99.90
16879;DHT22;8556;52.218;9.884;2022-12-11T12:41:06;1.20;99.90
16879;DHT22;8556;52.218;9.884;2022-12-11T12:43:58;1.70;99.90
16879;DHT22;8556;52.218;9.884;2022-12-11T12:46:36;1.60;99.90
16879;DHT22;8556;52.218;9.884;2022-12-11T12:49:09;0.70;99.90
16879;DHT22;8556;52.218;9.884;2022-12-11T12:51:40;0.50;99.90
16879;DHT22;8556;52.218;9.884;2022-12-11T12:54:11;0.70;99.90
16879;DHT22;8556;52.218;9.884;2022-12-11T12:56:39;0.50;99.90
16879;DHT22;8556;52.218;9.884;2022-12-11T12:59:18;0.70;99.90
16879;DHT22;8556;52.218;9.884;2022-12-11T13:01:46;0.80;99.90
16879;DHT22;8556;52.218;9.884;2022-12-11T13:04:28;0.70;99.90
16879;DHT22;8556;52.218;9.884;2022-12-11T13:06:58;0.40;99.90
16879;DHT22;8556;52.218;9.884;2022-12-11T13:09:36;0.20;99.90
16879;DHT22;8556;52.218;9.884;2022-12-11T13:12:12;0.10;99.90
16879;DHT22;8556;52.218;9.884;2022-12-11T13:14:39;0.10;99.90
16879;DHT22;8556;52.218;9.884;2022-12-11T13:17:23;0.00;99.90
16879;DHT22;8556;52.218;9.884;2022-12-11T13:20:09;0.10;99.90
16879;DHT22;8556;52.218;9.884;2022-12-11T13:22:47;0.10;99.90
16879;DHT22;8556;52.218;9.884;2022-12-11T13:25:22;0.10;99.90
16879;DHT22;8556;52.218;9.884;2022-12-11T13:27:49;0.20;99.90
16879;DHT22;8556;52.218;9.884;2022-12-11T13:30:22;0.20;99.90
16879;DHT22;8556;52.218;9.884;2022-12-11T13:32:57;0.10;99.90
16879;DHT22;8556;52.218;9.884;2022-12-11T13:35:27;0.20;99.90
16879;DHT22;8556;52.218;9.884;2022-12-11T13:38:02;0.20;99.90
16879;DHT22;8556;52.218;9.884;2022-12-11T13:40:35;0.20;99.90
16879;DHT22;8556;52.218;9.884;2022-12-11T13:43:06;0.20;99.90
16879;DHT22;8556;52.218;9.884;2022-12-11T13:45:38;0.20;99.90
16879;DHT22;8556;52.218;9.884;2022-12-11T13:48:16;0.10;99.90
16879;DHT22;8556;52.218;9.884;2022-12-11T13:50:44;0.10;99.90
16879;DHT22;8556;52.218;9.884;2022-12-11T13:53:14;-0.10;99.90
16879;DHT22;8556;52.218;9.884;2022-12-11T13:55:41;0.00;99.90
16879;DHT22;8556;52.218;9.884;2022-12-11T13:58:16;-0.20;99.90
16879;DHT22;8556;52.218;9.884;2022-12-11T14:00:58;-0.50;99.90
16879;DHT22;8556;52.218;9.884;2022-12-11T14:03:29;-0.30;99.90
16879;DHT22;8556;52.218;9.884;2022-12-11T14:05:56;-0.30;99.90
16879;DHT22;8556;52.218;9.884;2022-12-11T14:08:30;-0.40;99.90
16879;DHT22;8556;52.218;9.884;2022-12-11T14:10:57;-0.40;99.90
16879;DHT22;8556;52.218;9.884;2022-12-11T14:13:26;-0.40;99.90
16879;DHT22;8556;52.218;9.884;2022-12-11T14:15:54;-0.50;99.90
16879;DHT22;8556;52.218;9.884;2022-12-11T14:18:23;-0.50;99.90
16879;DHT22;8556;52.218;9.884;2022-12-11T14:20:54;-0.50;99.90
16879;DHT22;8556;52.218;9.884;2022-12-11T14:23:24;-0.50;99.90
16879;DHT22;8556;52.218;9.884;2022-12-11T14:25:52;-0.60;99.90
16879;DHT22;8556;52.218;9.884;2022-12-11T14:28:20;-0.60;99.90
16879;DHT22;8556;52.218;9.884;2022-12-11T14:30:49;-0.70;99.90
16879;DHT22;8556;52.218;9.884;2022-12-11T14:33:18;-0.70;99.90
16879;DHT22;8556;52.218;9.884;2022-12-11T14:35:48;-0.80;99.90
16879;DHT22;8556;52.218;9.884;2022-12-11T14:38:18;-0.90;99.90
16879;DHT22;8556;52.218;9.884;2022-12-11T14:40:53;-0.90;99.90
16879;DHT22;8556;52.218;9.884;2022-12-11T14:43:25;-0.90;99.90
16879;DHT22;8556;52.218;9.884;2022-12-11T14:45:57;-0.90;99.90
16879;DHT22;8556;52.218;9.884;2022-12-11T14:48:31;-0.80;99.90
16879;DHT22;8556;52.218;9.884;2022-12-11T14:51:03;-0.90;99.90
16879;DHT22;8556;52.218;9.884;2022-12-11T14:53:33;-1.00;99.90
16879;DHT22;8556;52.218;9.884;2022-12-11T14:56:06;-1.10;99.90
16879;DHT22;8556;52.218;9.884;2022-12-11T14:58:37;-1.20;99.90
16879;DHT22;8556;52.218;9.884;2022-12-11T15:01:20;-1.30;99.90
16879;DHT22;8556;52.218;9.884;2022-12-11T15:03:48;-1.30;99.90
16879;DHT22;8556;52.218;9.884;2022-12-11T15:06:23;-1.30;99.90
16879;DHT22;8556;52.218;9.884;2022-12-11T15:08:51;-1.40;99.90
16879;DHT22;8556;52.218;9.884;2022-12-11T15:11:20;-1.40;99.90
16879;DHT22;8556;52.218;9.884;2022-12-11T15:13:51;-1.30;99.90
16879;DHT22;8556;52.218;9.884;2022-12-11T15:16:19;-1.40;99.90
16879;DHT22;8556;52.218;9.884;2022-12-11T15:18:48;-1.60;99.90
16879;DHT22;8556;52.218;9.884;2022-12-11T15:21:18;-1.60;99.90
16879;DHT22;8556;52.218;9.884;2022-12-11T15:23:55;-1.70;99.90
16879;DHT22;8556;52.218;9.884;2022-12-11T15:26:33;-1.70;99.90
16879;DHT22;8556;52.218;9.884;2022-12-11T15:29:02;-1.60;99.90
16879;DHT22;8556;52.218;9.884;2022-12-11T15:31:31;-1.70;99.90
16879;DHT22;8556;52.218;9.884;2022-12-11T15:33:58;-2.00;99.90
16879;DHT22;8556;52.218;9.884;2022-12-11T15:36:30;-1.90;99.90
16879;DHT22;8556;52.218;9.884;2022-12-11T15:38:58;-2.00;99.90
16879;DHT22;8556;52.218;9.884;2022-12-11T15:41:24;-2.00;99.90
16879;DHT22;8556;52.218;9.884;2022-12-11T15:43:54;-2.00;99.90
16879;DHT22;8556;52.218;9.884;2022-12-11T15:46:22;-1.90;99.90
16879;DHT22;8556;52.218;9.884;2022-12-11T15:48:49;-1.90;99.90
16879;DHT22;8556;52.218;9.884;2022-12-11T15:51:16;-1.90;99.90
16879;DHT22;8556;52.218;9.884;2022-12-11T15:53:43;-1.90;99.90
16879;DHT22;8556;52.218;9.884;2022-12-11T15:56:12;-1.90;99.90
16879;DHT22;8556;52.218;9.884;2022-12-11T15:58:39;-1.80;99.90
16879;DHT22;8556;52.218;9.884;2022-12-11T16:01:08;-2.00;99.90
16879;DHT22;8556;52.218;9.884;2022-12-11T16:03:34;-1.90;99.90
16879;DHT22;8556;52.218;9.884;2022-12-11T16:06:02;-2.10;99.90
16879;DHT22;8556;52.218;9.884;2022-12-11T16:08:29;-2.20;99.90
16879;DHT22;8556;52.218;9.884;2022-12-11T16:10:56;-2.10;99.90